createdAt,value
2019-06-26T00:01:19.111Z,6.60
2019-06-26T00:03:50.345Z,9.78
2019-06-26T00:06:21.609Z,5.95
2019-06-26T00:08:52.820Z,8.03
2019-06-26T00:11:24.004Z,7.75
2019-06-26T00:13:55.226Z,5.67
2019-06-26T00:16:26.437Z,5.40
2019-06-26T00:18:57.662Z,6.08
2019-06-26T00:21:28.843Z,7.70
2019-06-26T00:24:00.002Z,8.88
2019-06-26T00:26:31.173Z,8.53
2019-06-26T00:29:02.329Z,6.35
2019-06-26T00:31:33.619Z,7.60
2019-06-26T00:34:04.891Z,8.90
2019-06-26T00:36:36.060Z,7.92
2019-06-26T00:39:07.679Z,7.72
2019-06-26T00:41:38.836Z,4.67
2019-06-26T00:44:09.984Z,4.53
2019-06-26T00:46:41.095Z,4.47
2019-06-26T00:49:12.429Z,7.25
2019-06-26T00:51:43.616Z,5.12
2019-06-26T00:54:14.921Z,5.00
2019-06-26T00:56:46.253Z,5.30
2019-06-26T00:59:17.455Z,7.87
2019-06-26T01:01:48.718Z,5.67
2019-06-26T01:04:33.506Z,8.43
2019-06-26T01:07:04.769Z,6.95
2019-06-26T01:09:35.983Z,5.42
2019-06-26T01:12:07.258Z,6.90
2019-06-26T01:14:38.607Z,6.35
2019-06-26T01:17:09.877Z,8.15
2019-06-26T01:19:41.187Z,5.17
2019-06-26T01:22:12.466Z,7.30
2019-06-26T01:24:43.722Z,7.45
2019-06-26T01:27:14.923Z,8.93
2019-06-26T01:29:46.252Z,10.05
2019-06-26T01:32:17.571Z,5.78
2019-06-26T01:34:48.786Z,8.43
2019-06-26T01:37:20.065Z,6.47
2019-06-26T01:39:51.401Z,13.20
2019-06-26T01:42:22.681Z,7.85
2019-06-26T01:44:53.896Z,12.13
2019-06-26T01:47:25.189Z,9.90
2019-06-26T01:49:56.528Z,6.17
2019-06-26T01:52:27.726Z,10.38
2019-06-26T01:54:59.036Z,12.40
2019-06-26T01:57:30.325Z,13.32
2019-06-26T02:00:01.656Z,11.28
2019-06-26T02:02:32.960Z,11.00
2019-06-26T02:05:05.910Z,11.78
2019-06-26T02:07:37.093Z,13.60
2019-06-26T02:10:09.022Z,6.97
2019-06-26T02:12:40.333Z,5.37
2019-06-26T02:15:11.662Z,7.45
2019-06-26T02:17:42.974Z,7.25
2019-06-26T02:20:14.526Z,9.65
2019-06-26T02:22:48.705Z,9.90
2019-06-26T02:25:18.869Z,7.22
2019-06-26T02:27:50.065Z,10.18
2019-06-26T02:30:21.704Z,7.12
2019-06-26T02:32:52.942Z,12.85
2019-06-26T02:35:24.280Z,12.68
2019-06-26T02:37:55.560Z,9.58
2019-06-26T02:40:26.773Z,13.75
2019-06-26T02:42:58.152Z,13.30
2019-06-26T02:45:29.409Z,9.68
2019-06-26T02:48:00.676Z,13.65
2019-06-26T02:50:31.968Z,9.78
2019-06-26T02:53:03.237Z,6.95
2019-06-26T02:55:34.629Z,16.80
2019-06-26T02:58:05.909Z,6.35
2019-06-26T03:00:37.233Z,10.13
2019-06-26T03:03:08.415Z,7.80
2019-06-26T03:05:39.652Z,13.03
2019-06-26T03:08:10.848Z,9.83
2019-06-26T03:10:42.098Z,8.45
2019-06-26T03:13:13.297Z,12.10
2019-06-26T03:15:44.552Z,5.72
2019-06-26T03:18:15.756Z,14.23
2019-06-26T03:20:50.242Z,8.30
2019-06-26T03:23:21.423Z,14.55
2019-06-26T03:25:58.720Z,6.37
2019-06-26T03:28:30.009Z,7.60
2019-06-26T03:31:01.200Z,9.43
2019-06-26T03:33:32.413Z,5.20
2019-06-26T03:36:03.613Z,10.38
2019-06-26T03:38:34.845Z,7.25
2019-06-26T03:41:06.055Z,8.63
2019-06-26T03:43:37.267Z,6.83
2019-06-26T03:46:08.505Z,11.90
2019-06-26T03:48:39.730Z,13.68
2019-06-26T03:51:13.933Z,19.07
2019-06-26T03:53:43.866Z,12.30
2019-06-26T03:56:15.103Z,9.28
2019-06-26T03:58:46.319Z,7.92
2019-06-26T04:01:17.520Z,11.40
2019-06-26T04:03:50.224Z,12.95
2019-06-26T04:06:21.409Z,11.20
2019-06-26T04:08:52.667Z,8.40
2019-06-26T04:11:23.867Z,18.60
2019-06-26T04:13:55.111Z,11.33
2019-06-26T04:16:26.285Z,11.95
2019-06-26T04:18:57.513Z,7.70
2019-06-26T04:21:28.814Z,14.20
2019-06-26T04:24:00.056Z,10.72
2019-06-26T04:26:31.213Z,13.43
2019-06-26T04:29:02.431Z,7.75
2019-06-26T04:31:33.643Z,12.78
2019-06-26T04:34:04.855Z,10.65
2019-06-26T04:36:36.090Z,13.18
2019-06-26T04:39:07.628Z,15.18
2019-06-26T04:41:38.853Z,9.18
2019-06-26T04:44:10.046Z,8.58
2019-06-26T04:46:41.195Z,9.63
2019-06-26T04:49:12.409Z,11.05
2019-06-26T04:51:43.500Z,7.90
2019-06-26T04:54:14.703Z,8.15
2019-06-26T04:56:46.419Z,9.88
2019-06-26T04:59:17.651Z,11.97
2019-06-26T05:01:48.823Z,7.92
2019-06-26T05:04:20.054Z,7.20
2019-06-26T05:06:51.230Z,6.92
2019-06-26T05:09:22.434Z,5.30
2019-06-26T05:11:53.616Z,5.78
2019-06-26T05:14:24.847Z,5.30
2019-06-26T05:16:56.043Z,11.15
2019-06-26T05:19:27.292Z,8.38
2019-06-26T05:21:58.296Z,10.88
2019-06-26T05:24:29.470Z,5.72
2019-06-26T05:27:00.646Z,5.45
2019-06-26T05:29:31.861Z,7.05
2019-06-26T05:32:03.052Z,10.93
2019-06-26T05:34:34.203Z,8.73
2019-06-26T05:37:05.491Z,5.33
2019-06-26T05:39:36.711Z,9.50
2019-06-26T05:42:07.884Z,8.35
2019-06-26T05:44:39.189Z,8.60
2019-06-26T05:47:10.408Z,7.95
2019-06-26T05:49:41.619Z,7.08
2019-06-26T05:52:16.387Z,9.78
2019-06-26T05:54:45.713Z,7.70
2019-06-26T05:57:16.973Z,9.55
2019-06-26T05:59:48.222Z,8.50
2019-06-26T06:02:19.750Z,9.58
2019-06-26T06:04:51.412Z,13.08
2019-06-26T06:07:22.707Z,9.43
2019-06-26T06:09:53.940Z,7.80
2019-06-26T06:12:25.162Z,11.65
2019-06-26T06:14:56.384Z,11.05
2019-06-26T06:17:27.604Z,12.10
2019-06-26T06:19:58.835Z,7.55
2019-06-26T06:22:30.139Z,16.57
2019-06-26T06:25:01.752Z,9.08
2019-06-26T06:27:34.781Z,7.33
2019-06-26T06:30:06.838Z,6.20
2019-06-26T06:32:38.150Z,7.35
2019-06-26T06:35:09.685Z,10.38
2019-06-26T06:37:40.841Z,5.17
2019-06-26T06:40:12.170Z,7.62
2019-06-26T06:42:43.365Z,16.80
2019-06-26T06:45:15.089Z,13.35
2019-06-26T06:47:46.271Z,9.05
2019-06-26T06:50:17.634Z,7.42
2019-06-26T06:52:50.966Z,12.63
2019-06-26T06:55:22.470Z,8.73
2019-06-26T06:57:53.736Z,8.10
2019-06-26T07:00:25.662Z,9.40
2019-06-26T07:02:57.027Z,6.75
2019-06-26T07:05:31.249Z,5.83
2019-06-26T07:08:02.433Z,9.18
2019-06-26T07:10:33.643Z,6.50
2019-06-26T07:13:04.845Z,6.80
2019-06-26T07:15:36.190Z,10.38
2019-06-26T07:18:07.329Z,4.33
2019-06-26T07:20:38.583Z,7.28
2019-06-26T07:23:09.788Z,7.45
2019-06-26T07:25:41.488Z,5.78
2019-06-26T07:28:12.818Z,7.33
2019-06-26T07:30:45.143Z,7.08
2019-06-26T07:33:16.433Z,3.22
2019-06-26T07:35:47.668Z,4.42
2019-06-26T07:38:18.842Z,2.77
2019-06-26T07:40:50.089Z,7.72
2019-06-26T07:43:21.394Z,4.10
2019-06-26T07:45:52.650Z,5.62
2019-06-26T07:48:23.826Z,4.35
2019-06-26T07:50:55.031Z,2.87
2019-06-26T07:53:26.353Z,5.83
2019-06-26T07:55:57.576Z,6.17
2019-06-26T07:58:31.774Z,8.68
2019-06-26T08:01:09.021Z,1.80
2019-06-26T08:03:41.028Z,10.90
2019-06-26T08:06:12.469Z,2.60
2019-06-26T08:08:43.850Z,3.90
2019-06-26T08:11:15.116Z,4.28
2019-06-26T08:13:46.368Z,6.12
2019-06-26T08:16:19.859Z,6.37
2019-06-26T08:18:51.391Z,5.42
2019-06-26T08:21:22.691Z,6.53
2019-06-26T08:23:53.880Z,14.75
2019-06-26T08:26:42.641Z,6.15
2019-06-26T08:29:35.301Z,4.03
2019-06-26T08:32:08.179Z,6.45
2019-06-26T08:34:40.535Z,7.15
2019-06-26T08:37:11.785Z,7.50
2019-06-26T08:39:45.273Z,4.97
2019-06-26T08:42:16.323Z,5.15
2019-06-26T08:44:48.955Z,5.17
2019-06-26T08:47:21.730Z,3.55
2019-06-26T08:49:53.050Z,8.25
2019-06-26T08:52:24.532Z,6.97
2019-06-26T08:54:57.033Z,2.77
2019-06-26T08:57:28.833Z,4.72
2019-06-26T09:00:02.311Z,2.85
2019-06-26T09:02:34.693Z,9.65
2019-06-26T09:05:08.168Z,8.58
2019-06-26T09:07:40.762Z,4.62
2019-06-26T09:10:12.684Z,8.43
2019-06-26T09:12:44.070Z,5.53
2019-06-26T09:15:16.032Z,6.75
2019-06-26T09:17:50.433Z,3.83
2019-06-26T09:20:34.177Z,6.17
2019-06-26T09:23:07.310Z,5.20
2019-06-26T09:25:41.681Z,6.22
2019-06-26T09:28:13.340Z,4.62
2019-06-26T09:30:47.390Z,6.22
2019-06-26T09:33:21.799Z,2.60
2019-06-26T09:35:52.628Z,3.87
2019-06-26T09:38:23.860Z,3.10
2019-06-26T09:40:54.966Z,6.40
2019-06-26T09:43:26.254Z,3.05
2019-06-26T09:46:00.398Z,6.65
2019-06-26T09:48:32.861Z,8.28
2019-06-26T09:51:04.070Z,7.67
2019-06-26T09:53:46.734Z,3.75
2019-06-26T09:56:09.524Z,4.50
2019-06-26T09:58:40.878Z,6.25
2019-06-26T10:01:15.796Z,5.92
2019-06-26T10:03:49.440Z,2.90
2019-06-26T10:06:21.119Z,5.65
2019-06-26T10:08:54.328Z,7.17
2019-06-26T10:11:25.566Z,3.05
2019-06-26T10:13:56.815Z,5.97
2019-06-26T10:16:28.145Z,3.47
2019-06-26T10:19:09.550Z,5.83
2019-06-26T10:21:32.480Z,5.65
2019-06-26T10:24:03.974Z,6.40
2019-06-26T10:26:35.555Z,5.62
2019-06-26T10:29:06.773Z,4.03
2019-06-26T10:31:38.006Z,4.47
2019-06-26T10:34:10.323Z,12.23
2019-06-26T10:36:41.834Z,7.30
2019-06-26T10:39:13.049Z,3.80
2019-06-26T10:41:44.319Z,6.37
2019-06-26T10:44:15.635Z,5.00
2019-06-26T10:46:46.896Z,5.42
2019-06-26T10:49:26.892Z,3.92
2019-06-26T10:51:51.389Z,3.42
2019-06-26T10:54:22.701Z,2.72
2019-06-26T10:56:53.927Z,3.83
2019-06-26T10:59:25.161Z,3.92
2019-06-26T11:01:56.669Z,4.67
2019-06-26T11:04:28.061Z,3.58
2019-06-26T11:06:59.427Z,4.05
2019-06-26T11:09:30.768Z,4.30
2019-06-26T11:12:02.494Z,9.15
2019-06-26T11:14:33.855Z,3.00
2019-06-26T11:17:05.969Z,2.75
2019-06-26T11:19:43.659Z,5.22
2019-06-26T11:22:10.896Z,2.05
2019-06-26T11:24:42.369Z,9.38
2019-06-26T11:27:13.687Z,2.42
2019-06-26T11:30:08.251Z,9.43
2019-06-26T11:32:42.193Z,6.75
2019-06-26T11:35:15.617Z,3.30
2019-06-26T11:37:47.864Z,5.42
2019-06-26T11:40:19.585Z,5.17
2019-06-26T11:42:50.805Z,7.00
2019-06-26T11:45:23.549Z,2.50
2019-06-26T11:47:56.358Z,3.83
2019-06-26T11:50:29.934Z,4.80
2019-06-26T11:53:01.118Z,5.53
2019-06-26T11:55:32.289Z,5.83
2019-06-26T11:58:04.657Z,2.45
2019-06-26T12:00:35.883Z,7.33
2019-06-26T12:03:07.294Z,2.75
2019-06-26T12:06:07.623Z,3.62
2019-06-26T12:08:28.025Z,6.40
2019-06-26T12:11:15.663Z,3.77
2019-06-26T12:14:03.557Z,3.83
2019-06-26T12:16:36.318Z,4.83
2019-06-26T12:19:19.739Z,2.40
2019-06-26T12:22:05.462Z,4.17
2019-06-26T12:24:39.475Z,5.28
2019-06-26T12:27:27.037Z,3.80
2019-06-26T12:30:16.056Z,6.03
2019-06-26T12:33:01.554Z,3.12
2019-06-26T12:35:20.349Z,2.80
2019-06-26T12:37:54.071Z,8.58
2019-06-26T12:40:30.953Z,8.43
2019-06-26T12:43:00.194Z,4.58
2019-06-26T12:45:32.114Z,4.55
2019-06-26T12:48:05.040Z,5.00
2019-06-26T12:50:52.956Z,6.08
2019-06-26T12:53:40.555Z,2.75
2019-06-26T12:56:12.052Z,9.08
2019-06-26T12:58:43.356Z,2.62
2019-06-26T13:01:32.374Z,2.58
2019-06-26T13:04:03.813Z,6.20
2019-06-26T13:06:35.669Z,2.35
2019-06-26T13:09:08.396Z,3.90
2019-06-26T13:11:39.838Z,6.67
2019-06-26T13:14:11.153Z,4.83
2019-06-26T13:16:44.588Z,5.67
2019-06-26T13:19:16.462Z,6.70
2019-06-26T13:21:47.927Z,5.83
2019-06-26T13:24:19.349Z,5.05
2019-06-26T13:26:54.268Z,4.00
2019-06-26T13:29:23.706Z,9.68
2019-06-26T13:31:54.983Z,3.00
2019-06-26T13:34:26.171Z,9.38
2019-06-26T13:36:57.445Z,7.92
2019-06-26T13:39:28.645Z,14.23
2019-06-26T13:41:59.916Z,2.90
2019-06-26T13:44:31.186Z,4.95
2019-06-26T13:47:02.533Z,3.10
2019-06-26T13:49:33.734Z,4.28
2019-06-26T13:52:04.980Z,5.33
2019-06-26T13:54:36.290Z,5.50
2019-06-26T13:57:07.620Z,4.40
2019-06-26T13:59:38.863Z,3.52
2019-06-26T14:02:11.220Z,10.03
2019-06-26T14:04:45.244Z,5.95
2019-06-26T14:07:16.455Z,5.87
2019-06-26T14:09:47.675Z,5.28
2019-06-26T14:12:19.409Z,3.55
2019-06-26T14:14:57.660Z,7.92
2019-06-26T14:17:28.050Z,8.30
2019-06-26T14:19:59.221Z,7.60
2019-06-26T14:22:30.614Z,5.30
2019-06-26T14:25:03.694Z,3.92
2019-06-26T14:27:36.059Z,4.90
2019-06-26T14:30:08.097Z,6.80
2019-06-26T14:32:39.463Z,8.10
2019-06-26T14:35:10.879Z,6.95
2019-06-26T14:37:43.001Z,5.45
2019-06-26T14:40:16.067Z,6.78
2019-06-26T14:42:52.781Z,4.47
2019-06-26T14:45:26.715Z,5.80
2019-06-26T14:48:06.464Z,4.67
2019-06-26T14:50:41.728Z,5.85
2019-06-26T14:53:12.967Z,7.62
2019-06-26T14:55:44.168Z,12.40
2019-06-26T14:58:15.394Z,4.83
2019-06-26T15:00:52.109Z,6.05
2019-06-26T15:03:23.476Z,5.15
2019-06-26T15:05:54.790Z,2.70
2019-06-26T15:08:26.083Z,6.55
2019-06-26T15:10:58.974Z,6.28
2019-06-26T15:13:30.181Z,8.33
2019-06-26T15:16:01.550Z,6.17
2019-06-26T15:18:32.776Z,7.35
2019-06-26T15:21:03.970Z,4.50
2019-06-26T15:23:35.359Z,5.97
2019-06-26T15:26:06.566Z,4.72
2019-06-26T15:28:37.864Z,5.37
2019-06-26T15:31:09.070Z,7.62
2019-06-26T15:33:40.301Z,4.50
2019-06-26T15:36:11.653Z,7.58
2019-06-26T15:38:42.903Z,4.12
2019-06-26T15:41:14.095Z,3.92
2019-06-26T15:43:45.337Z,6.97
2019-06-26T15:46:16.525Z,2.92
2019-06-26T15:48:50.286Z,2.92
2019-06-26T15:51:20.608Z,6.15
2019-06-26T15:53:51.766Z,4.80
2019-06-26T15:56:22.945Z,6.08
2019-06-26T15:58:54.793Z,8.43
2019-06-26T16:01:25.968Z,6.22
2019-06-26T16:03:57.309Z,4.75
2019-06-26T16:06:28.606Z,8.98
2019-06-26T16:08:59.800Z,6.97
2019-06-26T16:11:31.035Z,9.58
2019-06-26T16:14:02.214Z,5.12
2019-06-26T16:16:34.848Z,4.60
2019-06-26T16:19:07.628Z,5.62
2019-06-26T16:21:38.965Z,3.33
2019-06-26T16:24:11.586Z,5.58
2019-06-26T16:26:42.796Z,4.28
2019-06-26T16:29:13.994Z,4.20
2019-06-26T16:31:45.315Z,4.92
2019-06-26T16:34:16.537Z,4.55
2019-06-26T16:36:47.943Z,4.85
2019-06-26T16:39:19.225Z,4.70
2019-06-26T16:41:50.466Z,6.97
2019-06-26T16:44:22.359Z,3.52
2019-06-26T16:46:53.617Z,7.03
2019-06-26T16:49:24.815Z,7.53
2019-06-26T16:51:56.045Z,5.17
2019-06-26T16:54:27.237Z,5.35
2019-06-26T16:56:58.487Z,2.85
2019-06-26T16:59:29.782Z,5.70
2019-06-26T17:02:00.998Z,8.23
2019-06-26T17:04:32.176Z,6.42
2019-06-26T17:07:03.477Z,12.23
2019-06-26T17:09:34.739Z,6.05
2019-06-26T17:12:05.976Z,8.53
2019-06-26T17:14:37.196Z,6.12
2019-06-26T17:17:09.991Z,6.53
2019-06-26T17:19:41.204Z,9.65
2019-06-26T17:22:12.439Z,8.50
2019-06-26T17:24:43.606Z,6.65
2019-06-26T17:27:14.939Z,8.48
2019-06-26T17:29:46.117Z,5.65
2019-06-26T17:32:17.366Z,3.92
2019-06-26T17:34:48.567Z,5.42
2019-06-26T17:37:19.889Z,6.12
2019-06-26T17:39:52.654Z,7.17
2019-06-26T17:42:23.911Z,7.25
2019-06-26T17:44:55.089Z,11.22
2019-06-26T17:47:26.327Z,10.30
2019-06-26T17:49:57.524Z,7.97
2019-06-26T17:52:28.733Z,9.60
2019-06-26T17:55:02.998Z,11.28
2019-06-26T17:57:34.225Z,10.82
2019-06-26T18:00:10.674Z,13.85
2019-06-26T18:02:41.886Z,7.37
2019-06-26T18:05:13.659Z,15.15
2019-06-26T18:07:45.045Z,14.25
2019-06-26T18:10:16.613Z,16.42
2019-06-26T18:12:47.868Z,7.33
2019-06-26T18:15:19.058Z,14.65
2019-06-26T18:17:50.274Z,10.72
2019-06-26T18:20:21.455Z,11.43
2019-06-26T18:23:05.946Z,13.58
2019-06-26T18:25:25.661Z,18.73
2019-06-26T18:27:56.874Z,14.20
2019-06-26T18:30:28.082Z,17.90
2019-06-26T18:32:59.328Z,14.68
2019-06-26T18:35:31.413Z,22.50
2019-06-26T18:38:02.649Z,20.37
2019-06-26T18:40:33.831Z,22.00
2019-06-26T18:43:05.263Z,22.27
2019-06-26T18:45:36.450Z,20.30
2019-06-26T18:48:07.702Z,16.32
2019-06-26T18:50:38.895Z,19.05
2019-06-26T18:53:10.111Z,15.50
2019-06-26T18:55:41.297Z,14.75
2019-06-26T18:58:12.570Z,19.85
2019-06-26T19:00:43.866Z,25.08
2019-06-26T19:03:15.116Z,31.23
2019-06-26T19:05:46.312Z,15.32
2019-06-26T19:08:17.874Z,18.77
2019-06-26T19:10:49.091Z,19.80
2019-06-26T19:13:20.699Z,14.65
2019-06-26T19:15:52.004Z,23.55
2019-06-26T19:18:23.256Z,16.85
2019-06-26T19:20:54.433Z,16.55
2019-06-26T19:23:25.686Z,27.67
2019-06-26T19:25:56.892Z,13.72
2019-06-26T19:28:28.181Z,18.87
2019-06-26T19:30:59.407Z,21.15
2019-06-26T19:33:30.608Z,22.07
2019-06-26T19:36:02.057Z,30.40
2019-06-26T19:38:33.312Z,32.63
2019-06-26T19:41:08.340Z,36.65
2019-06-26T19:43:37.772Z,37.88
2019-06-26T19:46:08.968Z,33.73
2019-06-26T19:48:40.201Z,37.55
2019-06-26T19:51:11.408Z,33.10
2019-06-26T19:53:42.777Z,34.58
2019-06-26T19:56:13.972Z,30.68
2019-06-26T19:58:45.198Z,45.05
2019-06-26T20:01:17.099Z,45.48
2019-06-26T20:03:48.356Z,48.87
2019-06-26T20:06:19.439Z,49.05
2019-06-26T20:08:56.103Z,44.40
2019-06-26T20:11:23.570Z,68.80
2019-06-26T20:13:54.761Z,51.08
2019-06-26T20:16:25.969Z,54.63
2019-06-26T20:18:57.196Z,42.55
2019-06-26T20:21:28.418Z,42.53
2019-06-26T20:23:59.666Z,45.03
2019-06-26T20:26:30.803Z,45.33
2019-06-26T20:29:01.935Z,44.70
2019-06-26T20:31:33.215Z,46.35
2019-06-26T20:34:04.532Z,48.70
2019-06-26T20:36:35.711Z,41.98
2019-06-26T20:39:06.862Z,41.35
2019-06-26T20:41:38.050Z,46.83
2019-06-26T20:44:09.281Z,74.10
2019-06-26T20:46:40.487Z,91.20
2019-06-26T20:49:11.733Z,135.48
2019-06-26T20:51:42.909Z,169.62
2019-06-26T20:54:14.138Z,144.43
2019-06-26T20:56:45.349Z,158.97
2019-06-26T20:59:16.610Z,162.15
2019-06-26T21:01:47.808Z,169.40
2019-06-26T21:04:19.053Z,176.90
2019-06-26T21:06:50.227Z,150.62
2019-06-26T21:09:21.554Z,171.37
2019-06-26T21:11:52.769Z,141.03
2019-06-26T21:14:24.008Z,82.78
2019-06-26T21:16:55.207Z,69.37
2019-06-26T21:19:26.454Z,93.22
2019-06-26T21:21:57.662Z,73.97
2019-06-26T21:24:28.890Z,92.67
2019-06-26T21:27:00.088Z,86.60
2019-06-26T21:29:31.351Z,84.15
2019-06-26T21:32:02.533Z,73.05
2019-06-26T21:34:33.775Z,69.30
2019-06-26T21:37:04.952Z,73.25
2019-06-26T21:39:36.208Z,73.10
2019-06-26T21:42:07.413Z,80.70
2019-06-26T21:44:38.631Z,85.67
2019-06-26T21:47:09.851Z,88.55
2019-06-26T21:49:41.194Z,66.07
2019-06-26T21:52:12.431Z,82.00
2019-06-26T21:54:43.679Z,74.40
2019-06-26T21:57:14.893Z,72.67
2019-06-26T21:59:46.628Z,76.30
2019-06-26T22:02:17.827Z,73.00
2019-06-26T22:04:49.079Z,75.75
2019-06-26T22:07:20.372Z,75.10
2019-06-26T22:09:51.693Z,76.70
2019-06-26T22:12:22.889Z,78.67
2019-06-26T22:14:54.193Z,77.92
2019-06-26T22:17:25.356Z,77.87
2019-06-26T22:19:56.591Z,84.42
2019-06-26T22:22:27.748Z,76.87
2019-06-26T22:24:59.010Z,89.47
2019-06-26T22:27:30.264Z,82.90
2019-06-26T22:30:01.525Z,78.75
2019-06-26T22:32:32.767Z,79.05
2019-06-26T22:35:05.893Z,80.03
2019-06-26T22:37:37.106Z,77.42
2019-06-26T22:40:08.737Z,72.40
2019-06-26T22:42:39.905Z,80.38
2019-06-26T22:45:11.350Z,77.97
2019-06-26T22:47:42.550Z,79.10
2019-06-26T22:50:13.912Z,71.50
2019-06-26T22:52:45.112Z,75.35
2019-06-26T22:55:16.354Z,78.30
2019-06-26T22:57:47.559Z,73.50
2019-06-26T23:00:20.119Z,78.90
2019-06-26T23:02:51.294Z,77.35
2019-06-26T23:05:22.529Z,84.00
2019-06-26T23:07:53.829Z,79.47
2019-06-26T23:10:25.220Z,81.00
2019-06-26T23:12:56.398Z,83.85
2019-06-26T23:15:27.650Z,78.70
2019-06-26T23:17:58.859Z,80.80
2019-06-26T23:20:30.116Z,86.50
2019-06-26T23:23:01.448Z,81.82
2019-06-26T23:25:32.697Z,86.45
2019-06-26T23:28:03.868Z,88.20
2019-06-26T23:33:41.424Z,82.50
2019-06-26T23:36:12.832Z,79.47
2019-06-26T23:38:44.343Z,77.95
2019-06-26T23:41:20.034Z,84.58
2019-06-26T23:43:51.450Z,76.28
2019-06-26T23:46:22.808Z,81.57
2019-06-26T23:48:54.009Z,84.17
2019-06-26T23:51:26.975Z,86.22
2019-06-26T23:54:02.812Z,83.72
2019-06-26T23:56:42.819Z,81.30
2019-06-26T23:59:31.490Z,79.12
